sensor_id;sensor_type;location;lat;lon;timestamp;pressure;altitude;pressure_sealevel;temperature;humidity
29385;BME280;16367;48.736;9.218;2023-05-07T00:01:46;-23626.72;;;14.53;99.99
29385;BME280;16367;48.736;9.218;2023-05-07T00:03:49;-23629.06;;;14.60;98.61
29385;BME280;16367;48.736;9.218;2023-05-07T00:05:52;-23636.81;;;14.85;94.71
29385;BME280;16367;48.736;9.218;2023-05-07T00:07:55;-23636.81;;;14.85;96.44
29385;BME280;16367;48.736;9.218;2023-05-07T00:10:00;-23630.81;;;14.66;97.69
29385;BME280;16367;48.736;9.218;2023-05-07T00:12:03;-23627.66;;;14.56;99.28
29385;BME280;16367;48.736;9.218;2023-05-07T00:14:07;-23630.19;;;14.64;97.46
29385;BME280;16367;48.736;9.218;2023-05-07T00:16:10;-23628.44;;;14.58;97.05
29385;BME280;16367;48.736;9.218;2023-05-07T00:18:13;-23628.28;;;14.58;98.51
29385;BME280;16367;48.736;9.218;2023-05-07T00:20:15;-23628.28;;;14.58;97.60
29385;BME280;16367;48.736;9.218;2023-05-07T00:22:18;-23623.06;;;14.41;100.00
29385;BME280;16367;48.736;9.218;2023-05-07T00:24:22;-23625.13;;;14.48;99.61
29385;BME280;16367;48.736;9.218;2023-05-07T00:26:25;-23626.41;;;14.52;100.00
29385;BME280;16367;48.736;9.218;2023-05-07T00:28:28;-23626.06;;;14.51;97.83
29385;BME280;16367;48.736;9.218;2023-05-07T00:30:32;-23625.75;;;14.50;100.00
29385;BME280;16367;48.736;9.218;2023-05-07T00:32:35;-23624.66;;;14.46;100.00
29385;BME280;16367;48.736;9.218;2023-05-07T00:34:38;-23619.75;;;14.31;100.00
29385;BME280;16367;48.736;9.218;2023-05-07T00:36:41;-23619.75;;;14.31;100.00
29385;BME280;16367;48.736;9.218;2023-05-07T00:38:44;-23622.28;;;14.39;100.00
29385;BME280;16367;48.736;9.218;2023-05-07T00:40:47;-23621.03;;;14.35;100.00
29385;BME280;16367;48.736;9.218;2023-05-07T00:42:50;-23614.72;;;14.14;100.00
29385;BME280;16367;48.736;9.218;2023-05-07T00:44:58;-23617.69;;;14.24;100.00
29385;BME280;16367;48.736;9.218;2023-05-07T00:47:03;-23613.44;;;14.10;100.00
29385;BME280;16367;48.736;9.218;2023-05-07T00:49:07;-23621.34;;;14.36;99.19
29385;BME280;16367;48.736;9.218;2023-05-07T00:51:10;-23624.34;;;14.45;96.35
29385;BME280;16367;48.736;9.218;2023-05-07T00:53:14;-23627.81;;;14.56;94.72
29385;BME280;16367;48.736;9.218;2023-05-07T00:55:17;-23627.66;;;14.56;94.44
29385;BME280;16367;48.736;9.218;2023-05-07T00:57:21;-23628.59;;;14.59;97.46
29385;BME280;16367;48.736;9.218;2023-05-07T00:59:24;-23625.59;;;14.49;96.86
29385;BME280;16367;48.736;9.218;2023-05-07T01:01:27;-23627.81;;;14.56;95.20
29385;BME280;16367;48.736;9.218;2023-05-07T01:03:32;-23629.56;;;14.62;93.42
29385;BME280;16367;48.736;9.218;2023-05-07T01:05:36;-23626.72;;;14.53;96.36
29385;BME280;16367;48.736;9.218;2023-05-07T01:07:40;-23627.81;;;14.56;97.50
29385;BME280;16367;48.736;9.218;2023-05-07T01:09:44;-23627.97;;;14.57;94.85
29385;BME280;16367;48.736;9.218;2023-05-07T01:11:47;-23628.28;;;14.58;95.12
29385;BME280;16367;48.736;9.218;2023-05-07T01:13:52;-23626.41;;;14.52;96.23
29385;BME280;16367;48.736;9.218;2023-05-07T01:15:55;-23625.13;;;14.48;96.90
29385;BME280;16367;48.736;9.218;2023-05-07T01:17:58;-23622.13;;;14.38;98.03
29385;BME280;16367;48.736;9.218;2023-05-07T01:20:04;-23621.97;;;14.38;99.47
29385;BME280;16367;48.736;9.218;2023-05-07T01:22:10;-23620.09;;;14.32;99.92
29385;BME280;16367;48.736;9.218;2023-05-07T01:24:15;-23621.03;;;14.35;100.00
29385;BME280;16367;48.736;9.218;2023-05-07T01:26:18;-23615.97;;;14.18;100.00
29385;BME280;16367;48.736;9.218;2023-05-07T01:28:22;-23612.34;;;14.07;100.00
29385;BME280;16367;48.736;9.218;2023-05-07T01:30:25;-23613.75;;;14.11;100.00
29385;BME280;16367;48.736;9.218;2023-05-07T01:32:32;-23612.81;;;14.08;100.00
29385;BME280;16367;48.736;9.218;2023-05-07T01:34:36;-23613.28;;;14.10;100.00
29385;BME280;16367;48.736;9.218;2023-05-07T01:36:40;-23614.06;;;14.12;100.00
29385;BME280;16367;48.736;9.218;2023-05-07T01:38:45;-23614.06;;;14.12;100.00
29385;BME280;16367;48.736;9.218;2023-05-07T01:40:49;-23613.59;;;14.11;100.00
29385;BME280;16367;48.736;9.218;2023-05-07T01:42:54;-23616.28;;;14.19;99.67
29385;BME280;16367;48.736;9.218;2023-05-07T01:44:57;-23613.13;;;14.09;100.00
29385;BME280;16367;48.736;9.218;2023-05-07T01:47:01;-23615.97;;;14.18;99.39
29385;BME280;16367;48.736;9.218;2023-05-07T01:49:04;-23615.03;;;14.15;100.00
29385;BME280;16367;48.736;9.218;2023-05-07T01:51:08;-23622.28;;;14.39;94.74
29385;BME280;16367;48.736;9.218;2023-05-07T01:53:11;-23620.41;;;14.33;97.27
29385;BME280;16367;48.736;9.218;2023-05-07T01:55:14;-23624.81;;;14.47;92.82
29385;BME280;16367;48.736;9.218;2023-05-07T01:57:18;-23619.91;;;14.31;96.19
29385;BME280;16367;48.736;9.218;2023-05-07T01:59:21;-23618.03;;;14.25;97.15
29385;BME280;16367;48.736;9.218;2023-05-07T02:01:24;-23619.91;;;14.31;95.08
29385;BME280;16367;48.736;9.218;2023-05-07T02:03:27;-23617.22;;;14.23;98.09
29385;BME280;16367;48.736;9.218;2023-05-07T02:05:30;-23617.88;;;14.25;96.75
29385;BME280;16367;48.736;9.218;2023-05-07T02:07:33;-23619.28;;;14.29;96.10
29385;BME280;16367;48.736;9.218;2023-05-07T02:09:36;-23618.19;;;14.26;98.92
29385;BME280;16367;48.736;9.218;2023-05-07T02:11:38;-23615.81;;;14.18;99.18
29385;BME280;16367;48.736;9.218;2023-05-07T02:13:43;-23619.91;;;14.31;93.42
29385;BME280;16367;48.736;9.218;2023-05-07T02:15:45;-23617.22;;;14.23;97.55
29385;BME280;16367;48.736;9.218;2023-05-07T02:17:59;-23615.34;;;14.16;96.52
29385;BME280;16367;48.736;9.218;2023-05-07T02:20:03;-23613.75;;;14.11;98.41
29385;BME280;16367;48.736;9.218;2023-05-07T02:22:06;-23613.75;;;14.11;96.80
29385;BME280;16367;48.736;9.218;2023-05-07T02:24:09;-23611.22;;;14.03;97.03
29385;BME280;16367;48.736;9.218;2023-05-07T02:26:12;-23607.44;;;13.91;100.00
29385;BME280;16367;48.736;9.218;2023-05-07T02:28:15;-23605.53;;;13.85;100.00
29385;BME280;16367;48.736;9.218;2023-05-07T02:30:19;-23605.72;;;13.86;100.00
29385;BME280;16367;48.736;9.218;2023-05-07T02:32:22;-23604.59;;;13.82;100.00
29385;BME280;16367;48.736;9.218;2023-05-07T02:34:26;-23603.34;;;13.78;100.00
29385;BME280;16367;48.736;9.218;2023-05-07T02:36:29;-23603.50;;;13.79;100.00
29385;BME280;16367;48.736;9.218;2023-05-07T02:38:32;-23597.00;;;13.58;100.00
29385;BME280;16367;48.736;9.218;2023-05-07T02:40:35;-23594.97;;;13.52;100.00
29385;BME280;16367;48.736;9.218;2023-05-07T02:42:40;-23597.34;;;13.59;100.00
29385;BME280;16367;48.736;9.218;2023-05-07T02:44:43;-23596.88;;;13.58;100.00
29385;BME280;16367;48.736;9.218;2023-05-07T02:46:47;-23596.06;;;13.55;100.00
29385;BME280;16367;48.736;9.218;2023-05-07T02:48:50;-23598.28;;;13.62;100.00
29385;BME280;16367;48.736;9.218;2023-05-07T02:50:52;-23596.69;;;13.57;100.00
29385;BME280;16367;48.736;9.218;2023-05-07T02:52:55;-23596.53;;;13.57;100.00
29385;BME280;16367;48.736;9.218;2023-05-07T02:54:58;-23597.50;;;13.60;100.00
29385;BME280;16367;48.736;9.218;2023-05-07T02:57:01;-23594.50;;;13.50;100.00
29385;BME280;16367;48.736;9.218;2023-05-07T02:59:04;-23590.69;;;13.38;100.00
29385;BME280;16367;48.736;9.218;2023-05-07T03:01:08;-23588.31;;;13.30;100.00
29385;BME280;16367;48.736;9.218;2023-05-07T03:03:12;-23587.84;;;13.29;100.00
29385;BME280;16367;48.736;9.218;2023-05-07T03:05:15;-23586.91;;;13.26;100.00
29385;BME280;16367;48.736;9.218;2023-05-07T03:07:18;-23581.84;;;13.10;100.00
29385;BME280;16367;48.736;9.218;2023-05-07T03:09:21;-23579.31;;;13.02;100.00
29385;BME280;16367;48.736;9.218;2023-05-07T03:11:24;-23577.41;;;12.96;100.00
29385;BME280;16367;48.736;9.218;2023-05-07T03:13:27;-23575.22;;;12.89;100.00
29385;BME280;16367;48.736;9.218;2023-05-07T03:15:30;-23580.28;;;13.05;100.00
29385;BME280;16367;48.736;9.218;2023-05-07T03:17:33;-23581.84;;;13.10;100.00
29385;BME280;16367;48.736;9.218;2023-05-07T03:19:37;-23582.16;;;13.11;100.00
29385;BME280;16367;48.736;9.218;2023-05-07T03:21:40;-23585.31;;;13.21;100.00
29385;BME280;16367;48.736;9.218;2023-05-07T03:23:43;-23584.38;;;13.18;100.00
29385;BME280;16367;48.736;9.218;2023-05-07T03:25:46;-23591.34;;;13.40;100.00
29385;BME280;16367;48.736;9.218;2023-05-07T03:27:48;-23588.50;;;13.31;100.00
29385;BME280;16367;48.736;9.218;2023-05-07T03:29:51;-23587.53;;;13.28;100.00
29385;BME280;16367;48.736;9.218;2023-05-07T03:31:54;-23584.84;;;13.19;100.00
29385;BME280;16367;48.736;9.218;2023-05-07T03:33:57;-23583.13;;;13.14;100.00
29385;BME280;16367;48.736;9.218;2023-05-07T03:36:02;-23582.16;;;13.11;100.00
29385;BME280;16367;48.736;9.218;2023-05-07T03:38:05;-23580.59;;;13.06;100.00
29385;BME280;16367;48.736;9.218;2023-05-07T03:40:08;-23582.97;;;13.13;100.00
29385;BME280;16367;48.736;9.218;2023-05-07T03:42:14;-23581.53;;;13.09;100.00
29385;BME280;16367;48.736;9.218;2023-05-07T03:44:17;-23580.59;;;13.06;100.00
29385;BME280;16367;48.736;9.218;2023-05-07T03:46:20;-23579.47;;;13.02;100.00
29385;BME280;16367;48.736;9.218;2023-05-07T03:48:23;-23581.69;;;13.09;100.00
29385;BME280;16367;48.736;9.218;2023-05-07T03:50:26;-23581.38;;;13.08;100.00
29385;BME280;16367;48.736;9.218;2023-05-07T03:52:30;-23579.63;;;13.03;100.00
29385;BME280;16367;48.736;9.218;2023-05-07T03:54:33;-23581.53;;;13.09;100.00
29385;BME280;16367;48.736;9.218;2023-05-07T03:56:36;-23578.22;;;12.98;100.00
29385;BME280;16367;48.736;9.218;2023-05-07T03:58:39;-23578.53;;;12.99;100.00
29385;BME280;16367;48.736;9.218;2023-05-07T04:03:58;-23579.78;;;13.03;100.00
29385;BME280;16367;48.736;9.218;2023-05-07T04:06:02;-23579.94;;;13.04;100.00
29385;BME280;16367;48.736;9.218;2023-05-07T04:08:06;-23578.06;;;12.98;100.00
29385;BME280;16367;48.736;9.218;2023-05-07T04:10:09;-23576.47;;;12.93;100.00
29385;BME280;16367;48.736;9.218;2023-05-07T04:12:13;-23575.84;;;12.91;100.00
29385;BME280;16367;48.736;9.218;2023-05-07T04:14:15;-23576.63;;;12.93;100.00
29385;BME280;16367;48.736;9.218;2023-05-07T04:16:18;-23572.53;;;12.80;100.00
29385;BME280;16367;48.736;9.218;2023-05-07T04:18:21;-23574.88;;;12.88;100.00
29385;BME280;16367;48.736;9.218;2023-05-07T04:20:24;-23570.94;;;12.75;100.00
29385;BME280;16367;48.736;9.218;2023-05-07T04:22:26;-23575.38;;;12.89;100.00
29385;BME280;16367;48.736;9.218;2023-05-07T04:24:32;-23573.78;;;12.84;100.00
29385;BME280;16367;48.736;9.218;2023-05-07T04:26:35;-23579.78;;;13.03;100.00
29385;BME280;16367;48.736;9.218;2023-05-07T04:28:38;-23582.31;;;13.11;100.00
29385;BME280;16367;48.736;9.218;2023-05-07T04:30:41;-23581.84;;;13.10;100.00
29385;BME280;16367;48.736;9.218;2023-05-07T04:32:44;-23582.78;;;13.13;100.00
29385;BME280;16367;48.736;9.218;2023-05-07T04:34:47;-23583.44;;;13.15;100.00
29385;BME280;16367;48.736;9.218;2023-05-07T04:36:50;-23581.84;;;13.10;100.00
29385;BME280;16367;48.736;9.218;2023-05-07T04:38:53;-23583.91;;;13.16;100.00
29385;BME280;16367;48.736;9.218;2023-05-07T04:40:57;-23585.97;;;13.23;100.00
29385;BME280;16367;48.736;9.218;2023-05-07T04:43:00;-23590.06;;;13.36;100.00
29385;BME280;16367;48.736;9.218;2023-05-07T04:45:03;-23587.84;;;13.29;100.00
29385;BME280;16367;48.736;9.218;2023-05-07T04:47:06;-23588.63;;;13.31;100.00
29385;BME280;16367;48.736;9.218;2023-05-07T04:49:09;-23587.22;;;13.27;100.00
29385;BME280;16367;48.736;9.218;2023-05-07T04:51:16;-23586.44;;;13.24;100.00
29385;BME280;16367;48.736;9.218;2023-05-07T04:53:21;-23583.13;;;13.14;100.00
29385;BME280;16367;48.736;9.218;2023-05-07T04:55:24;-23583.59;;;13.15;100.00
29385;BME280;16367;48.736;9.218;2023-05-07T04:57:28;-23581.84;;;13.10;100.00
29385;BME280;16367;48.736;9.218;2023-05-07T04:59:30;-23586.91;;;13.26;100.00
29385;BME280;16367;48.736;9.218;2023-05-07T05:01:34;-23585.31;;;13.21;100.00
29385;BME280;16367;48.736;9.218;2023-05-07T05:03:37;-23580.44;;;13.05;100.00
29385;BME280;16367;48.736;9.218;2023-05-07T05:05:41;-23576.47;;;12.93;100.00
29385;BME280;16367;48.736;9.218;2023-05-07T05:07:43;-23580.44;;;13.05;100.00
29385;BME280;16367;48.736;9.218;2023-05-07T05:09:46;-23576.94;;;12.94;100.00
29385;BME280;16367;48.736;9.218;2023-05-07T05:11:49;-23576.00;;;12.91;100.00
29385;BME280;16367;48.736;9.218;2023-05-07T05:13:53;-23577.41;;;12.96;100.00
29385;BME280;16367;48.736;9.218;2023-05-07T05:15:56;-23579.31;;;13.02;100.00
29385;BME280;16367;48.736;9.218;2023-05-07T05:17:58;-23592.59;;;13.44;100.00
29385;BME280;16367;48.736;9.218;2023-05-07T05:20:02;-23602.69;;;13.76;100.00
29385;BME280;16367;48.736;9.218;2023-05-07T05:22:05;-23606.66;;;13.89;100.00
29385;BME280;16367;48.736;9.218;2023-05-07T05:24:07;-23602.69;;;13.76;100.00
29385;BME280;16367;48.736;9.218;2023-05-07T05:26:10;-23614.38;;;14.13;100.00
29385;BME280;16367;48.736;9.218;2023-05-07T05:28:13;-23619.75;;;14.31;100.00
29385;BME280;16367;48.736;9.218;2023-05-07T05:30:17;-23623.06;;;14.41;99.99
29385;BME280;16367;48.736;9.218;2023-05-07T05:32:22;-23615.03;;;14.15;100.00
29385;BME280;16367;48.736;9.218;2023-05-07T05:34:25;-23616.59;;;14.20;100.00
29385;BME280;16367;48.736;9.218;2023-05-07T05:36:27;-23633.03;;;14.73;99.24
29385;BME280;16367;48.736;9.218;2023-05-07T05:38:30;-23639.34;;;14.93;95.41
29385;BME280;16367;48.736;9.218;2023-05-07T05:40:33;-23637.75;;;14.88;95.86
29385;BME280;16367;48.736;9.218;2023-05-07T05:42:35;-23653.38;;;15.38;92.16
29385;BME280;16367;48.736;9.218;2023-05-07T05:44:38;-23650.69;;;15.29;90.13
29385;BME280;16367;48.736;9.218;2023-05-07T05:46:42;-23661.72;;;15.64;88.10
29385;BME280;16367;48.736;9.218;2023-05-07T05:48:45;-23664.09;;;15.72;87.38
29385;BME280;16367;48.736;9.218;2023-05-07T05:50:48;-23662.03;;;15.65;87.29
29385;BME280;16367;48.736;9.218;2023-05-07T05:52:51;-23663.00;;;15.68;88.43
29385;BME280;16367;48.736;9.218;2023-05-07T05:54:53;-23669.28;;;15.89;87.37
29385;BME280;16367;48.736;9.218;2023-05-07T05:56:56;-23664.72;;;15.74;88.96
29385;BME280;16367;48.736;9.218;2023-05-07T05:58:59;-23676.38;;;16.11;87.40
29385;BME280;16367;48.736;9.218;2023-05-07T06:01:02;-23671.97;;;15.97;88.67
29385;BME280;16367;48.736;9.218;2023-05-07T06:03:07;-23687.56;;;16.47;88.19
29385;BME280;16367;48.736;9.218;2023-05-07T06:05:15;-23689.78;;;16.54;84.94
29385;BME280;16367;48.736;9.218;2023-05-07T06:07:18;-23694.34;;;16.69;83.18
29385;BME280;16367;48.736;9.218;2023-05-07T06:09:20;-23710.25;;;17.20;81.86
29385;BME280;16367;48.736;9.218;2023-05-07T06:11:23;-23713.88;;;17.31;78.15
29385;BME280;16367;48.736;9.218;2023-05-07T06:13:26;-23697.50;;;16.79;80.70
29385;BME280;16367;48.736;9.218;2023-05-07T06:15:29;-23715.91;;;17.38;78.22
29385;BME280;16367;48.736;9.218;2023-05-07T06:17:32;-23717.81;;;17.44;78.12
29385;BME280;16367;48.736;9.218;2023-05-07T06:19:37;-23743.91;;;18.27;75.81
29385;BME280;16367;48.736;9.218;2023-05-07T06:21:40;-23716.22;;;17.39;77.42
29385;BME280;16367;48.736;9.218;2023-05-07T06:23:43;-23716.22;;;17.39;78.06
29385;BME280;16367;48.736;9.218;2023-05-07T06:25:48;-23699.56;;;16.85;81.84
29385;BME280;16367;48.736;9.218;2023-05-07T06:27:51;-23698.59;;;16.82;79.80
29385;BME280;16367;48.736;9.218;2023-05-07T06:29:54;-23710.88;;;17.22;79.21
29385;BME280;16367;48.736;9.218;2023-05-07T06:32:06;-23727.88;;;17.76;76.66
29385;BME280;16367;48.736;9.218;2023-05-07T06:34:09;-23747.69;;;18.39;74.26
29385;BME280;16367;48.736;9.218;2023-05-07T06:36:16;-23712.47;;;17.27;78.30
29385;BME280;16367;48.736;9.218;2023-05-07T06:38:19;-23703.00;;;16.96;81.64
29385;BME280;16367;48.736;9.218;2023-05-07T06:40:22;-23709.94;;;17.19;78.78
29385;BME280;16367;48.736;9.218;2023-05-07T06:42:25;-23687.41;;;16.47;83.08
29385;BME280;16367;48.736;9.218;2023-05-07T06:44:28;-23703.16;;;16.97;82.16
29385;BME280;16367;48.736;9.218;2023-05-07T06:46:30;-23702.06;;;16.93;82.16
29385;BME280;16367;48.736;9.218;2023-05-07T06:48:33;-23687.41;;;16.47;85.38
29385;BME280;16367;48.736;9.218;2023-05-07T06:50:36;-23681.91;;;16.29;86.58
29385;BME280;16367;48.736;9.218;2023-05-07T06:52:40;-23688.03;;;16.49;86.40
29385;BME280;16367;48.736;9.218;2023-05-07T06:54:43;-23703.81;;;16.99;84.26
29385;BME280;16367;48.736;9.218;2023-05-07T06:56:46;-23724.91;;;17.66;80.55
29385;BME280;16367;48.736;9.218;2023-05-07T06:58:48;-23723.31;;;17.61;77.33
29385;BME280;16367;48.736;9.218;2023-05-07T07:00:51;-23738.41;;;18.10;76.61
29385;BME280;16367;48.736;9.218;2023-05-07T07:02:54;-23712.78;;;17.28;78.62
29385;BME280;16367;48.736;9.218;2023-05-07T07:04:57;-23727.88;;;17.76;78.98
29385;BME280;16367;48.736;9.218;2023-05-07T07:07:00;-23756.66;;;18.68;76.07
29385;BME280;16367;48.736;9.218;2023-05-07T07:09:04;-23769.38;;;19.09;73.14
29385;BME280;16367;48.736;9.218;2023-05-07T07:11:08;-23798.75;;;20.03;68.21
29385;BME280;16367;48.736;9.218;2023-05-07T07:13:11;-23776.13;;;19.30;70.32
29385;BME280;16367;48.736;9.218;2023-05-07T07:15:14;-23775.03;;;19.27;71.30
29385;BME280;16367;48.736;9.218;2023-05-07T07:17:17;-23795.00;;;19.91;71.38
29385;BME280;16367;48.736;9.218;2023-05-07T07:19:20;-23829.50;;;21.02;65.21
29385;BME280;16367;48.736;9.218;2023-05-07T07:21:23;-23856.31;;;21.88;61.54
29385;BME280;16367;48.736;9.218;2023-05-07T07:23:25;-23853.16;;;21.78;61.89
29385;BME280;16367;48.736;9.218;2023-05-07T07:25:29;-23836.25;;;21.23;63.51
29385;BME280;16367;48.736;9.218;2023-05-07T07:27:32;-23843.44;;;21.46;61.84
29385;BME280;16367;48.736;9.218;2023-05-07T07:29:35;-23882.91;;;22.73;59.02
29385;BME280;16367;48.736;9.218;2023-05-07T07:31:38;-23881.34;;;22.68;57.75
29385;BME280;16367;48.736;9.218;2023-05-07T07:33:42;-23844.09;;;21.48;62.40
29385;BME280;16367;48.736;9.218;2023-05-07T07:35:44;-23856.63;;;21.89;61.21
29385;BME280;16367;48.736;9.218;2023-05-07T07:37:48;-23845.66;;;21.53;61.40
29385;BME280;16367;48.736;9.218;2023-05-07T07:39:52;-23880.09;;;22.64;57.18
29385;BME280;16367;48.736;9.218;2023-05-07T07:41:56;-23849.25;;;21.65;60.31
29385;BME280;16367;48.736;9.218;2023-05-07T07:43:59;-23816.81;;;20.61;65.56
29385;BME280;16367;48.736;9.218;2023-05-07T07:46:01;-23853.16;;;21.78;63.81
29385;BME280;16367;48.736;9.218;2023-05-07T07:48:05;-23871.03;;;22.35;58.97
29385;BME280;16367;48.736;9.218;2023-05-07T07:50:09;-23875.72;;;22.50;58.05
29385;BME280;16367;48.736;9.218;2023-05-07T07:52:15;-23858.19;;;21.94;59.03
29385;BME280;16367;48.736;9.218;2023-05-07T07:54:18;-23852.53;;;21.76;62.51
29385;BME280;16367;48.736;9.218;2023-05-07T07:56:21;-23842.50;;;21.43;62.70
29385;BME280;16367;48.736;9.218;2023-05-07T07:58:25;-23860.69;;;22.02;60.92
29385;BME280;16367;48.736;9.218;2023-05-07T08:00:28;-23900.75;;;23.31;55.10
29385;BME280;16367;48.736;9.218;2023-05-07T08:02:31;-23841.72;;;21.41;60.75
29385;BME280;16367;48.736;9.218;2023-05-07T08:04:33;-23890.59;;;22.98;57.79
29385;BME280;16367;48.736;9.218;2023-05-07T08:06:38;-23944.50;;;24.72;51.99
29385;BME280;16367;48.736;9.218;2023-05-07T08:08:41;-23926.38;;;24.13;52.07
29385;BME280;16367;48.736;9.218;2023-05-07T08:10:44;-23896.38;;;23.17;55.32
29385;BME280;16367;48.736;9.218;2023-05-07T08:12:47;-23886.81;;;22.86;56.93
29385;BME280;16367;48.736;9.218;2023-05-07T08:14:51;-23871.66;;;22.37;58.69
29385;BME280;16367;48.736;9.218;2023-05-07T08:16:54;-23904.50;;;23.43;54.15
29385;BME280;16367;48.736;9.218;2023-05-07T08:18:57;-23910.75;;;23.63;55.35
29385;BME280;16367;48.736;9.218;2023-05-07T08:21:00;-23927.63;;;24.17;52.88
29385;BME280;16367;48.736;9.218;2023-05-07T08:23:03;-23898.56;;;23.24;57.52
29385;BME280;16367;48.736;9.218;2023-05-07T08:25:08;-23905.75;;;23.47;55.84
29385;BME280;16367;48.736;9.218;2023-05-07T08:27:11;-23902.78;;;23.37;55.97
29385;BME280;16367;48.736;9.218;2023-05-07T08:29:14;-23880.25;;;22.65;59.17
29385;BME280;16367;48.736;9.218;2023-05-07T08:31:18;-23926.09;;;24.12;54.46
29385;BME280;16367;48.736;9.218;2023-05-07T08:33:21;-23892.31;;;23.04;56.60
29385;BME280;16367;48.736;9.218;2023-05-07T08:35:24;-23927.78;;;24.18;54.90
29385;BME280;16367;48.736;9.218;2023-05-07T08:37:28;-23916.53;;;23.82;56.63
29385;BME280;16367;48.736;9.218;2023-05-07T08:39:31;-23932.94;;;24.34;53.01
29385;BME280;16367;48.736;9.218;2023-05-07T08:41:34;-23946.53;;;24.78;52.89
29385;BME280;16367;48.736;9.218;2023-05-07T08:43:38;-23952.31;;;24.97;51.58
29385;BME280;16367;48.736;9.218;2023-05-07T08:45:45;-23965.88;;;25.41;51.52
29385;BME280;16367;48.736;9.218;2023-05-07T08:47:51;-23987.09;;;26.09;49.87
29385;BME280;16367;48.736;9.218;2023-05-07T08:49:55;-23966.03;;;25.41;51.69
29385;BME280;16367;48.736;9.218;2023-05-07T08:51:58;-23987.09;;;26.09;48.93
29385;BME280;16367;48.736;9.218;2023-05-07T08:54:02;-24019.66;;;27.14;47.31
29385;BME280;16367;48.736;9.218;2023-05-07T08:56:05;-23968.22;;;25.48;51.50
29385;BME280;16367;48.736;9.218;2023-05-07T08:58:09;-23993.78;;;26.31;49.00
29385;BME280;16367;48.736;9.218;2023-05-07T09:00:13;-23946.22;;;24.77;53.37
29385;BME280;16367;48.736;9.218;2023-05-07T09:02:16;-24007.19;;;26.74;47.40
29385;BME280;16367;48.736;9.218;2023-05-07T09:04:21;-23973.84;;;25.66;50.38
29385;BME280;16367;48.736;9.218;2023-05-07T09:06:24;-23961.53;;;25.27;51.92
29385;BME280;16367;48.736;9.218;2023-05-07T09:08:28;-23945.75;;;24.76;50.41
29385;BME280;16367;48.736;9.218;2023-05-07T09:10:32;-23969.47;;;25.52;49.56
29385;BME280;16367;48.736;9.218;2023-05-07T09:12:35;-23993.97;;;26.31;48.38
29385;BME280;16367;48.736;9.218;2023-05-07T09:14:39;-24012.50;;;26.91;48.15
29385;BME280;16367;48.736;9.218;2023-05-07T09:16:42;-23986.94;;;26.09;47.98
29385;BME280;16367;48.736;9.218;2023-05-07T09:18:45;-23973.06;;;25.64;50.66
29385;BME280;16367;48.736;9.218;2023-05-07T09:20:50;-24015.91;;;27.02;47.18
29385;BME280;16367;48.736;9.218;2023-05-07T09:22:55;-23961.81;;;25.28;50.63
29385;BME280;16367;48.736;9.218;2023-05-07T09:24:58;-23942.00;;;24.64;52.52
29385;BME280;16367;48.736;9.218;2023-05-07T09:27:01;-23976.97;;;25.76;50.16
29385;BME280;16367;48.736;9.218;2023-05-07T09:29:04;-24003.16;;;26.61;47.75
29385;BME280;16367;48.736;9.218;2023-05-07T09:31:07;-24017.31;;;27.07;48.84
29385;BME280;16367;48.736;9.218;2023-05-07T09:33:10;-24029.16;;;27.45;47.55
29385;BME280;16367;48.736;9.218;2023-05-07T09:35:15;-23981.63;;;25.92;47.50
29385;BME280;16367;48.736;9.218;2023-05-07T09:37:19;-23987.56;;;26.11;47.73
29385;BME280;16367;48.736;9.218;2023-05-07T09:39:23;-23966.66;;;25.43;48.79
29385;BME280;16367;48.736;9.218;2023-05-07T09:41:26;-24008.28;;;26.78;48.15
29385;BME280;16367;48.736;9.218;2023-05-07T09:43:32;-24058.22;;;28.39;45.12
29385;BME280;16367;48.736;9.218;2023-05-07T09:45:36;-23926.38;;;24.13;51.08
29385;BME280;16367;48.736;9.218;2023-05-07T09:47:41;-23968.06;;;25.48;51.00
29385;BME280;16367;48.736;9.218;2023-05-07T09:49:47;-23992.88;;;26.28;49.21
29385;BME280;16367;48.736;9.218;2023-05-07T09:51:52;-24064.44;;;28.59;44.13
29385;BME280;16367;48.736;9.218;2023-05-07T09:53:57;-24008.13;;;26.77;47.35
29385;BME280;16367;48.736;9.218;2023-05-07T09:56:02;-24005.16;;;26.68;47.55
29385;BME280;16367;48.736;9.218;2023-05-07T09:58:06;-23977.59;;;25.78;49.13
29385;BME280;16367;48.736;9.218;2023-05-07T10:00:10;-23952.00;;;24.96;51.23
29385;BME280;16367;48.736;9.218;2023-05-07T10:02:14;-23993.03;;;26.28;49.54
29385;BME280;16367;48.736;9.218;2023-05-07T10:04:18;-24051.09;;;28.16;45.47
29385;BME280;16367;48.736;9.218;2023-05-07T10:06:23;-24051.72;;;28.18;45.56
29385;BME280;16367;48.736;9.218;2023-05-07T10:08:27;-24053.41;;;28.24;44.39
29385;BME280;16367;48.736;9.218;2023-05-07T10:10:33;-24036.63;;;27.69;45.36
29385;BME280;16367;48.736;9.218;2023-05-07T10:12:37;-24028.84;;;27.44;45.46
29385;BME280;16367;48.736;9.218;2023-05-07T10:14:42;-24040.03;;;27.80;44.41
29385;BME280;16367;48.736;9.218;2023-05-07T10:16:45;-24060.56;;;28.47;45.51
29385;BME280;16367;48.736;9.218;2023-05-07T10:18:50;-23987.88;;;26.12;46.86
29385;BME280;16367;48.736;9.218;2023-05-07T10:20:54;-23981.63;;;25.92;48.37
29385;BME280;16367;48.736;9.218;2023-05-07T10:23:02;-23971.34;;;25.58;50.41
29385;BME280;16367;48.736;9.218;2023-05-07T10:25:09;-23974.16;;;25.67;49.33
29385;BME280;16367;48.736;9.218;2023-05-07T10:27:18;-23980.38;;;25.87;49.94
29385;BME280;16367;48.736;9.218;2023-05-07T10:29:31;-23979.00;;;25.83;50.82
29385;BME280;16367;48.736;9.218;2023-05-07T10:31:46;-23939.97;;;24.57;51.83
29385;BME280;16367;48.736;9.218;2023-05-07T10:33:52;-23952.31;;;24.97;52.33
29385;BME280;16367;48.736;9.218;2023-05-07T10:35:58;-23949.03;;;24.86;51.68
29385;BME280;16367;48.736;9.218;2023-05-07T10:38:02;-23938.56;;;24.53;53.54
29385;BME280;16367;48.736;9.218;2023-05-07T10:40:07;-23915.59;;;23.79;54.65
29385;BME280;16367;48.736;9.218;2023-05-07T10:42:11;-23930.13;;;24.25;54.90
29385;BME280;16367;48.736;9.218;2023-05-07T10:44:26;-23955.75;;;25.08;52.96
29385;BME280;16367;48.736;9.218;2023-05-07T10:46:32;-23953.72;;;25.01;50.11